Time;durP1;ratioP1;P1;durP2;ratioP2;P2;SDS_P1;SDS_P2;PMS_P1;PMS_P2;Temp;Humidity;BMP_temperature;BMP_pressure;BME280_temperature;BME280_humidity;BME280_pressure;Samples;Min_cycle;Max_cycle;Signal;HPM_P1;HPM_P2
2021/01/05 00:01:38;;;;;;;22.45;16.38;;;1.30;1.00;;;;;;5012359;28;20420;-65
2021/01/05 00:04:05;;;;;;;24.00;16.77;;;1.40;1.00;;;;;;5012391;28;20420;-65
2021/01/05 00:06:31;;;;;;;23.37;16.23;;;1.40;1.00;;;;;;5012123;28;20424;-66
2021/01/05 00:08:57;;;;;;;20.25;16.05;;;1.40;1.00;;;;;;5012501;28;20421;-65
2021/01/05 00:11:23;;;;;;;23.77;16.42;;;1.40;1.00;;;;;;5011855;28;20933;-65
2021/01/05 00:13:49;;;;;;;20.95;15.93;;;1.50;1.00;;;;;;5012519;28;20413;-65
2021/01/05 00:16:15;;;;;;;21.75;16.25;;;1.40;1.00;;;;;;5011953;28;20793;-66
2021/01/05 00:18:42;;;;;;;22.88;16.00;;;1.40;1.00;;;;;;5011725;28;20420;-65
2021/01/05 00:21:08;;;;;;;21.63;15.50;;;1.40;1.00;;;;;;5012248;28;20412;-65
2021/01/05 00:23:34;;;;;;;22.20;16.50;;;1.40;1.00;;;;;;5011580;28;20411;-65
2021/01/05 00:26:00;;;;;;;22.38;17.55;;;1.50;1.00;;;;;;5011893;28;20770;-65
2021/01/05 00:28:26;;;;;;;24.13;16.80;;;1.40;1.00;;;;;;5011805;28;20413;-65
2021/01/05 00:30:52;;;;;;;20.95;15.85;;;1.60;1.00;;;;;;5011810;28;20916;-65
2021/01/05 00:33:18;;;;;;;24.03;16.30;;;1.50;1.00;;;;;;5011738;28;20829;-65
2021/01/05 00:35:45;;;;;;;21.27;16.08;;;1.60;1.00;;;;;;5011635;28;20416;-65
2021/01/05 00:38:12;;;;;;;20.88;14.68;;;1.60;1.00;;;;;;5011874;28;20789;-64
2021/01/05 00:40:38;;;;;;;19.52;14.57;;;1.60;1.00;;;;;;5011679;28;20412;-65
2021/01/05 00:43:05;;;;;;;23.03;16.67;;;1.60;99.90;;;;;;5011922;28;20420;-65
2021/01/05 00:45:33;;;;;;;19.00;14.13;;;1.60;1.00;;;;;;5011462;28;20421;-65
2021/01/05 00:48:00;;;;;;;23.55;15.80;;;1.50;99.90;;;;;;5011092;28;21083;-65
2021/01/05 00:50:27;;;;;;;19.45;15.27;;;1.50;99.90;;;;;;5011760;28;20801;-65
2021/01/05 00:52:54;;;;;;;21.05;16.40;;;1.60;1.00;;;;;;5011360;28;20407;-65
2021/01/05 00:55:20;;;;;;;20.73;15.45;;;1.50;99.90;;;;;;5011654;28;20836;-65
2021/01/05 00:57:47;;;;;;;22.38;16.67;;;1.50;1.00;;;;;;5011024;28;20810;-65
2021/01/05 01:00:16;;;;;;;22.77;16.23;;;1.60;1.00;;;;;;5011258;28;20420;-65
2021/01/05 01:02:43;;;;;;;23.70;16.05;;;1.60;99.90;;;;;;5011235;28;20420;-65
2021/01/05 01:05:10;;;;;;;20.17;14.63;;;1.60;99.90;;;;;;5011822;28;20421;-66
2021/01/05 01:07:36;;;;;;;22.35;15.23;;;1.60;99.90;;;;;;5011042;28;20782;-65
2021/01/05 01:10:05;;;;;;;23.87;16.90;;;1.60;99.90;;;;;;5011010;28;20916;-65
2021/01/05 01:12:31;;;;;;;19.05;14.73;;;1.60;99.90;;;;;;5011212;28;20424;-65
2021/01/05 01:14:57;;;;;;;20.77;15.40;;;1.60;99.90;;;;;;5010848;28;20429;-65
2021/01/05 01:17:24;;;;;;;21.45;15.05;;;1.50;99.90;;;;;;5010904;28;20416;-65
2021/01/05 01:19:50;;;;;;;21.13;15.55;;;1.60;99.90;;;;;;5011130;28;20417;-66
2021/01/05 01:22:18;;;;;;;19.90;14.63;;;1.60;99.90;;;;;;5010801;28;20886;-66
2021/01/05 01:24:44;;;;;;;22.15;15.07;;;1.60;99.90;;;;;;5011236;28;20424;-65
2021/01/05 01:27:11;;;;;;;19.73;14.73;;;1.60;99.90;;;;;;5010535;28;20428;-65
2021/01/05 01:29:37;;;;;;;20.38;15.32;;;1.60;99.90;;;;;;5011239;28;21042;-66
2021/01/05 01:32:03;;;;;;;21.70;16.33;;;1.60;99.90;;;;;;5010855;28;20429;-66
2021/01/05 01:34:30;;;;;;;20.15;15.70;;;1.60;99.90;;;;;;5011100;28;20413;-65
2021/01/05 01:36:58;;;;;;;22.17;15.90;;;1.50;99.90;;;;;;5010820;28;20536;-65
2021/01/05 01:39:25;;;;;;;20.92;14.88;;;1.50;99.90;;;;;;5010992;28;20413;-65
2021/01/05 01:41:52;;;;;;;20.77;14.52;;;1.50;99.90;;;;;;5010834;28;20421;-65
2021/01/05 01:44:22;;;;;;;19.33;14.63;;;1.50;99.90;;;;;;5010827;28;20845;-65
2021/01/05 01:46:49;;;;;;;21.33;14.75;;;1.60;99.90;;;;;;5011021;28;20435;-66
2021/01/05 01:49:15;;;;;;;20.00;15.20;;;1.50;99.90;;;;;;5010929;28;20474;-66
2021/01/05 01:51:42;;;;;;;17.17;12.77;;;1.50;99.90;;;;;;5010993;28;20505;-65
2021/01/05 01:54:37;;;;;;;20.07;14.93;;;1.60;99.90;;;;;;5010931;28;20429;-65
2021/01/05 01:57:32;;;;;;;20.52;14.82;;;1.50;99.90;;;;;;5010483;28;20436;-65
2021/01/05 02:00:10;;;;;;;18.90;14.40;;;1.50;99.90;;;;;;5010911;28;20435;-65
2021/01/05 02:03:07;;;;;;;19.50;14.63;;;1.50;99.90;;;;;;5010451;28;20421;-65
2021/01/05 02:05:37;;;;;;;21.00;14.90;;;1.50;99.90;;;;;;5010618;28;20928;-65
2021/01/05 02:08:17;;;;;;;19.88;15.23;;;1.50;99.90;;;;;;5010160;28;20793;-65
2021/01/05 02:11:09;;;;;;;21.48;14.77;;;1.50;99.90;;;;;;5010592;28;20487;-65
2021/01/05 02:14:06;;;;;;;19.63;14.57;;;1.50;99.90;;;;;;5010536;28;21041;-64
2021/01/05 02:16:40;;;;;;;16.65;13.00;;;1.50;99.90;;;;;;5003723;28;20428;-65
2021/01/05 02:19:13;;;;;;;21.52;15.60;;;1.50;99.90;;;;;;5010400;28;20470;-64
2021/01/05 02:21:50;;;;;;;22.85;14.90;;;1.50;99.90;;;;;;5010340;28;20420;-65
2021/01/05 02:24:30;;;;;;;20.05;13.82;;;1.50;99.90;;;;;;5010307;28;20416;-65
2021/01/05 02:27:02;;;;;;;18.50;14.27;;;1.50;99.90;;;;;;5010397;28;20417;-65
2021/01/05 02:29:34;;;;;;;20.73;15.30;;;1.60;99.90;;;;;;5010424;28;20421;-66
2021/01/05 02:32:11;;;;;;;22.08;15.50;;;1.50;99.90;;;;;;5010292;28;20428;-65
2021/01/05 02:34:51;;;;;;;19.48;15.65;;;1.50;99.90;;;;;;5010899;28;20416;-65
2021/01/05 02:37:37;;;;;;;20.45;15.90;;;1.50;99.90;;;;;;5013597;28;20416;-65
2021/01/05 02:40:31;;;;;;;21.08;14.65;;;1.40;99.90;;;;;;5013762;28;20463;-65
2021/01/05 02:43:25;;;;;;;22.30;15.40;;;1.50;99.90;;;;;;5013713;28;20416;-65
2021/01/05 02:46:08;;;;;;;20.40;14.40;;;1.50;99.90;;;;;;5014021;28;20432;-64
2021/01/05 02:48:58;;;;;;;21.33;15.10;;;1.60;99.90;;;;;;5013410;28;20416;-64
2021/01/05 02:52:09;;;;;;;24.88;16.60;;;1.50;99.90;;;;;;5013799;28;20428;-64
2021/01/05 02:54:55;;;;;;;23.87;16.40;;;1.40;99.90;;;;;;5013565;28;20917;-65
2021/01/05 02:57:44;;;;;;;22.20;16.02;;;1.50;99.90;;;;;;5013671;28;20416;-65
2021/01/05 03:00:52;;;;;;;20.65;15.20;;;1.60;99.90;;;;;;5013442;28;20515;-66
2021/01/05 03:03:38;;;;;;;19.92;15.43;;;1.60;99.90;;;;;;5013455;28;20861;-65
2021/01/05 03:06:30;;;;;;;20.98;15.70;;;1.60;99.90;;;;;;5013136;28;21197;-65
2021/01/05 03:09:34;;;;;;;22.77;15.73;;;1.60;99.90;;;;;;5013830;28;20774;-66
2021/01/05 03:12:14;;;;;;;22.63;16.52;;;1.60;99.90;;;;;;5013338;28;20429;-65
2021/01/05 03:14:53;;;;;;;23.33;16.08;;;1.60;99.90;;;;;;5013971;28;20882;-66
2021/01/05 03:17:26;;;;;;;24.40;15.88;;;1.60;99.90;;;;;;5013530;28;20448;-65
2021/01/05 03:20:02;;;;;;;22.58;15.23;;;1.60;99.90;;;;;;5013669;28;20429;-65
2021/01/05 03:22:32;;;;;;;21.65;16.27;;;1.60;99.90;;;;;;5013435;28;20409;-66
2021/01/05 03:25:00;;;;;;;22.73;15.25;;;1.60;99.90;;;;;;5013719;28;20416;-66
2021/01/05 03:27:27;;;;;;;21.63;16.30;;;1.60;99.90;;;;;;5012732;28;20416;-65
2021/01/05 03:29:56;;;;;;;21.60;14.98;;;1.60;99.90;;;;;;5013310;28;20409;-66
2021/01/05 03:32:23;;;;;;;22.45;16.00;;;1.50;99.90;;;;;;5012928;28;20511;-65
2021/01/05 03:34:49;;;;;;;24.77;16.15;;;1.50;99.90;;;;;;5013269;28;20416;-65
2021/01/05 03:37:15;;;;;;;22.30;16.17;;;1.50;99.90;;;;;;5012761;28;20463;-65
2021/01/05 03:39:41;;;;;;;22.90;15.07;;;1.40;99.90;;;;;;5012892;28;20421;-66
2021/01/05 03:42:08;;;;;;;21.45;15.25;;;1.50;99.90;;;;;;5012865;28;20413;-66
2021/01/05 03:44:34;;;;;;;19.63;14.70;;;1.50;99.90;;;;;;5012594;28;20412;-66
2021/01/05 03:47:00;;;;;;;23.90;15.97;;;1.50;99.90;;;;;;5012008;28;20429;-66
2021/01/05 03:49:27;;;;;;;20.95;15.75;;;1.40;99.90;;;;;;5012763;28;20439;-65
2021/01/05 03:51:53;;;;;;;22.77;15.82;;;1.40;99.90;;;;;;5012357;28;20424;-65
2021/01/05 03:54:22;;;;;;;23.90;16.80;;;1.40;99.90;;;;;;5012666;28;20417;-64
2021/01/05 03:56:48;;;;;;;23.83;16.15;;;1.50;99.90;;;;;;5011990;28;20420;-65
2021/01/05 03:59:14;;;;;;;22.73;14.57;;;1.50;99.90;;;;;;5014108;28;20412;-66
2021/01/05 04:01:49;;;;;;;24.10;15.55;;;1.50;99.90;;;;;;5012178;28;20440;-65
2021/01/05 04:04:15;;;;;;;22.83;16.30;;;1.50;99.90;;;;;;5012527;28;20421;-66
2021/01/05 04:06:42;;;;;;;21.33;15.60;;;1.50;99.90;;;;;;5012163;28;20848;-65
2021/01/05 04:09:08;;;;;;;24.13;15.98;;;1.50;99.90;;;;;;5013519;28;20412;-65
2021/01/05 04:11:34;;;;;;;23.00;16.00;;;1.50;99.90;;;;;;5031912;28;20879;-66
2021/01/05 04:14:01;;;;;;;21.88;16.40;;;1.50;99.90;;;;;;5031539;28;20415;-66
2021/01/05 04:16:27;;;;;;;24.02;14.90;;;1.40;99.90;;;;;;5031399;28;20777;-65
2021/01/05 04:18:53;;;;;;;20.33;14.57;;;1.50;99.90;;;;;;5031603;28;20419;-65
2021/01/05 04:21:19;;;;;;;24.17;15.55;;;1.60;99.90;;;;;;5031730;28;20411;-66
2021/01/05 04:23:46;;;;;;;25.40;16.02;;;1.50;99.90;;;;;;5031663;28;20423;-65
2021/01/05 04:26:12;;;;;;;25.42;15.40;;;1.40;99.90;;;;;;5031061;28;20422;-64
2021/01/05 04:28:38;;;;;;;22.77;15.30;;;1.40;1.00;;;;;;5031341;28;20410;-65
2021/01/05 04:31:04;;;;;;;24.80;16.60;;;1.50;1.00;;;;;;5031216;28;20956;-65
2021/01/05 04:33:30;;;;;;;20.30;14.40;;;1.60;1.00;;;;;;5031721;28;20419;-65
2021/01/05 04:35:57;;;;;;;22.25;14.80;;;1.60;99.90;;;;;;5031432;28;20441;-65
2021/01/05 04:38:23;;;;;;;24.02;15.95;;;1.60;99.90;;;;;;5031011;28;21061;-64
2021/01/05 04:40:52;;;;;;;25.03;14.67;;;1.60;99.90;;;;;;5031386;28;20422;-64
2021/01/05 04:43:28;;;;;;;25.15;17.48;;;1.60;99.90;;;;;;5031963;28;20419;-65
2021/01/05 04:46:17;;;;;;;23.80;15.50;;;1.60;99.90;;;;;;5031962;28;20419;-65
2021/01/05 04:48:51;;;;;;;23.38;15.68;;;1.60;99.90;;;;;;5031651;28;20434;-66
2021/01/05 04:51:24;;;;;;;24.17;15.40;;;1.60;99.90;;;;;;5032528;28;20422;-65
2021/01/05 04:53:55;;;;;;;22.02;14.52;;;1.60;99.90;;;;;;5031569;28;20411;-66
2021/01/05 04:56:31;;;;;;;26.70;17.38;;;1.60;99.90;;;;;;5031066;28;20465;-65
2021/01/05 04:58:59;;;;;;;25.48;16.17;;;1.50;99.90;;;;;;5030469;28;20423;-65
2021/01/05 05:01:29;;;;;;;20.85;14.60;;;1.50;99.90;;;;;;5031046;28;20411;-65
2021/01/05 05:04:04;;;;;;;21.65;14.15;;;1.50;1.00;;;;;;5029196;28;20423;-66
2021/01/05 05:06:35;;;;;;;21.27;14.00;;;1.60;1.00;;;;;;5030136;28;20419;-66
2021/01/05 05:09:08;;;;;;;22.30;14.23;;;1.60;99.90;;;;;;5031259;28;20419;-65
2021/01/05 05:11:45;;;;;;;21.02;13.52;;;1.50;99.90;;;;;;5030755;28;20431;-66
2021/01/05 05:14:19;;;;;;;23.40;14.75;;;1.50;99.90;;;;;;5030249;28;20415;-66
2021/01/05 05:16:56;;;;;;;21.58;14.63;;;1.60;99.90;;;;;;5030320;28;20478;-65
2021/01/05 05:19:39;;;;;;;20.55;14.85;;;1.60;99.90;;;;;;5030996;28;20415;-65
2021/01/05 05:22:12;;;;;;;22.40;13.98;;;1.60;99.90;;;;;;5030417;28;20492;-65
2021/01/05 05:24:49;;;;;;;23.27;15.20;;;1.70;99.90;;;;;;5030453;28;20410;-65
2021/01/05 05:27:22;;;;;;;20.92;13.75;;;1.70;99.90;;;;;;5030526;28;20419;-65
2021/01/05 05:29:53;;;;;;;21.38;14.30;;;1.70;99.90;;;;;;5030584;28;20418;-65
2021/01/05 05:32:26;;;;;;;24.52;15.48;;;1.70;99.90;;;;;;5030987;28;20484;-65
2021/01/05 05:34:59;;;;;;;24.40;15.82;;;1.70;99.90;;;;;;5030701;28;20427;-64
2021/01/05 05:37:45;;;;;;;20.30;14.10;;;1.70;99.90;;;;;;5030505;28;20419;-65
2021/01/05 05:40:22;;;;;;;21.63;14.57;;;1.80;99.90;;;;;;5030819;28;20415;-64
2021/01/05 05:43:05;;;;;;;22.48;15.43;;;1.80;99.90;;;;;;5030901;28;20426;-65
2021/01/05 05:45:35;;;;;;;22.75;14.63;;;1.70;99.90;;;;;;5031102;28;20415;-65
2021/01/05 05:48:11;;;;;;;24.40;15.13;;;1.80;99.90;;;;;;5032213;28;20425;-65
2021/01/05 05:50:45;;;;;;;23.85;14.82;;;1.80;99.90;;;;;;5032655;28;20910;-65
2021/01/05 05:53:16;;;;;;;22.40;15.27;;;1.80;99.90;;;;;;5031422;28;20423;-65
2021/01/05 05:55:49;;;;;;;22.73;14.80;;;1.80;99.90;;;;;;5030940;28;20414;-64
2021/01/05 05:58:20;;;;;;;24.98;15.60;;;1.80;99.90;;;;;;5029977;28;20418;-65
2021/01/05 06:00:48;;;;;;;21.42;14.35;;;1.70;99.90;;;;;;5030441;28;20418;-64
2021/01/05 06:03:18;;;;;;;23.57;15.50;;;1.70;99.90;;;;;;5030062;28;20426;-64
2021/01/05 06:05:44;;;;;;;26.67;17.05;;;1.70;99.90;;;;;;5030628;28;20415;-67
2021/01/05 06:08:13;;;;;;;24.55;15.40;;;1.80;99.90;;;;;;5027116;28;20415;-68
2021/01/05 06:10:40;;;;;;;24.70;15.55;;;1.70;99.90;;;;;;5033237;28;20911;-66
2021/01/05 06:13:06;;;;;;;21.98;15.65;;;1.70;99.90;;;;;;5034835;28;20423;-68
2021/01/05 06:15:33;;;;;;;23.83;15.18;;;1.70;99.90;;;;;;5034282;28;20895;-68
2021/01/05 06:18:01;;;;;;;21.98;14.00;;;1.70;99.90;;;;;;5033682;28;20499;-68
2021/01/05 06:20:27;;;;;;;23.42;15.50;;;1.70;99.90;;;;;;5034155;28;20783;-64
2021/01/05 06:22:54;;;;;;;24.58;15.00;;;1.70;99.90;;;;;;5034131;28;20403;-63
2021/01/05 06:25:21;;;;;;;21.65;13.93;;;1.80;1.00;;;;;;5034175;28;20441;-64
2021/01/05 06:27:47;;;;;;;22.10;15.13;;;1.90;99.90;;;;;;5033705;28;20419;-67
2021/01/05 06:30:14;;;;;;;22.85;15.00;;;1.90;99.90;;;;;;5034618;28;20415;-67
2021/01/05 06:32:41;;;;;;;23.98;16.27;;;1.90;99.90;;;;;;5033944;28;20815;-67
2021/01/05 06:35:09;;;;;;;23.23;15.57;;;1.90;99.90;;;;;;5034244;28;20800;-67
2021/01/05 06:37:35;;;;;;;23.52;15.73;;;1.90;99.90;;;;;;5033354;28;20465;-68
2021/01/05 06:40:01;;;;;;;22.30;15.55;;;1.90;99.90;;;;;;5033086;28;20490;-65
2021/01/05 06:42:27;;;;;;;23.90;16.13;;;1.80;99.90;;;;;;5033783;28;20490;-65
2021/01/05 06:44:53;;;;;;;23.85;16.20;;;1.80;99.90;;;;;;5033342;28;20410;-65
2021/01/05 06:47:19;;;;;;;28.10;17.80;;;1.70;99.90;;;;;;5033650;28;20423;-63
2021/01/05 06:49:46;;;;;;;29.02;16.77;;;1.70;99.90;;;;;;5033261;28;20846;-66
2021/01/05 06:52:12;;;;;;;25.10;16.77;;;1.70;99.90;;;;;;5033409;28;20434;-67
2021/01/05 06:54:38;;;;;;;24.60;16.42;;;1.80;99.90;;;;;;5034145;28;20427;-66
2021/01/05 06:57:05;;;;;;;24.63;16.40;;;1.80;99.90;;;;;;5033594;28;20422;-65
2021/01/05 06:59:31;;;;;;;26.10;17.70;;;1.80;99.90;;;;;;5033570;28;21006;-66
2021/01/05 07:02:00;;;;;;;26.45;16.60;;;1.80;99.90;;;;;;5033044;28;20831;-67
2021/01/05 07:04:27;;;;;;;24.92;16.85;;;1.80;99.90;;;;;;5033604;28;20940;-67
2021/01/05 07:06:55;;;;;;;26.10;16.60;;;1.90;99.90;;;;;;5032357;28;20420;-67
2021/01/05 07:09:23;;;;;;;25.98;18.15;;;1.80;99.90;;;;;;5032818;28;20441;-68
2021/01/05 07:11:50;;;;;;;28.20;16.92;;;1.80;99.90;;;;;;5033004;28;20938;-64
2021/01/05 07:14:19;;;;;;;27.60;18.13;;;1.90;99.90;;;;;;5033013;28;20414;-65
2021/01/05 07:16:45;;;;;;;25.13;16.60;;;1.90;99.90;;;;;;5032457;28;20426;-65
2021/01/05 07:19:20;;;;;;;25.60;17.02;;;1.90;99.90;;;;;;5032801;28;20415;-65
2021/01/05 07:21:46;;;;;;;22.70;15.43;;;1.90;99.90;;;;;;5032636;28;20428;-66
2021/01/05 07:24:14;;;;;;;24.42;16.00;;;1.90;99.90;;;;;;5032974;28;20415;-66
2021/01/05 07:26:45;;;;;;;27.07;16.67;;;2.00;99.90;;;;;;5032647;28;20452;-66
2021/01/05 07:29:13;;;;;;;27.15;17.73;;;2.00;99.90;;;;;;5032938;28;20784;-64
2021/01/05 07:31:39;;;;;;;29.50;18.02;;;1.80;99.90;;;;;;5032435;28;20465;-62
2021/01/05 07:34:05;;;;;;;26.83;16.13;;;1.80;99.90;;;;;;5032736;28;20834;-64
2021/01/05 07:36:34;;;;;;;24.55;17.45;;;1.70;99.90;;;;;;5032516;28;20411;-65
2021/01/05 07:39:01;;;;;;;24.97;16.60;;;1.80;99.90;;;;;;5032156;28;20415;-65
2021/01/05 07:41:27;;;;;;;27.95;17.85;;;1.90;99.90;;;;;;5032313;28;20883;-65
2021/01/05 07:43:54;;;;;;;25.27;16.20;;;1.80;99.90;;;;;;5032683;28;20419;-64
2021/01/05 07:46:21;;;;;;;25.23;16.20;;;1.70;99.90;;;;;;5032495;28;20441;-64
2021/01/05 07:48:47;;;;;;;25.90;16.92;;;1.70;99.90;;;;;;5031686;28;20450;-63
2021/01/05 07:51:13;;;;;;;26.48;16.27;;;1.80;99.90;;;;;;5032631;28;20438;-63
2021/01/05 07:53:39;;;;;;;28.85;17.27;;;1.70;99.90;;;;;;5032285;28;20415;-65
2021/01/05 07:56:06;;;;;;;26.73;16.70;;;1.80;99.90;;;;;;5032472;28;20414;-64
2021/01/05 07:58:32;;;;;;;26.80;17.02;;;1.80;99.90;;;;;;5031866;28;20422;-65
2021/01/05 08:00:59;;;;;;;28.48;17.38;;;1.80;99.90;;;;;;5031914;28;20427;-65
2021/01/05 08:03:25;;;;;;;28.13;16.50;;;1.80;99.90;;;;;;5032072;28;20473;-66
2021/01/05 08:05:51;;;;;;;27.92;16.40;;;1.70;99.90;;;;;;5031577;28;20799;-66
2021/01/05 08:08:17;;;;;;;25.83;17.50;;;1.70;99.90;;;;;;5031548;28;20762;-65
2021/01/05 08:10:43;;;;;;;29.40;17.05;;;1.70;99.90;;;;;;5031938;28;20442;-64
2021/01/05 08:13:11;;;;;;;26.52;17.48;;;1.70;99.90;;;;;;5031426;28;20899;-64
2021/01/05 08:15:38;;;;;;;27.10;16.42;;;1.80;99.90;;;;;;5031863;28;20783;-68
2021/01/05 08:18:07;;;;;;;26.67;16.80;;;1.80;99.90;;;;;;5031348;28;20422;-68
2021/01/05 08:20:36;;;;;;;27.58;17.33;;;1.70;99.90;;;;;;5032476;28;20423;-68
2021/01/05 08:23:04;;;;;;;27.27;17.27;;;1.80;99.90;;;;;;5032764;28;20461;-68
2021/01/05 08:25:31;;;;;;;26.92;16.27;;;1.70;99.90;;;;;;5031453;28;20419;-66
2021/01/05 08:27:58;;;;;;;28.33;16.17;;;1.80;99.90;;;;;;5030995;28;20419;-67
2021/01/05 08:30:27;;;;;;;28.23;16.63;;;1.80;99.90;;;;;;5031739;28;20445;-65
2021/01/05 08:32:58;;;;;;;28.83;17.13;;;1.80;99.90;;;;;;5033598;28;20430;-66
2021/01/05 08:35:24;;;;;;;24.50;15.15;;;1.80;99.90;;;;;;5032698;28;20919;-66
2021/01/05 08:37:51;;;;;;;25.80;15.52;;;1.90;99.90;;;;;;5033164;28;20419;-67
2021/01/05 08:40:20;;;;;;;27.63;16.33;;;1.80;99.90;;;;;;5031956;28;20917;-64
2021/01/05 08:42:46;;;;;;;26.40;17.05;;;1.80;99.90;;;;;;5032696;28;20407;-64
2021/01/05 08:45:14;;;;;;;27.15;16.92;;;1.90;99.90;;;;;;5030880;28;20411;-65
2021/01/05 08:47:40;;;;;;;25.67;16.98;;;1.90;99.90;;;;;;5030591;28;20415;-65
2021/01/05 08:50:09;;;;;;;27.20;16.57;;;2.00;99.90;;;;;;5031476;28;20445;-65
2021/01/05 08:52:35;;;;;;;25.40;16.33;;;2.00;99.90;;;;;;5031405;28;20427;-65
2021/01/05 08:55:02;;;;;;;27.00;16.90;;;1.90;99.90;;;;;;5030951;28;20761;-66
2021/01/05 08:57:28;;;;;;;26.63;16.50;;;2.00;99.90;;;;;;5030654;28;20438;-67
2021/01/05 08:59:55;;;;;;;28.43;16.93;;;2.00;99.90;;;;;;5031066;28;20422;-66
2021/01/05 09:02:21;;;;;;;28.30;17.52;;;2.10;99.90;;;;;;5031234;28;20415;-66
2021/01/05 09:04:47;;;;;;;27.58;16.70;;;2.10;99.90;;;;;;5031419;28;20472;-66
2021/01/05 09:07:19;;;;;;;29.38;17.77;;;2.00;99.90;;;;;;5031023;28;20784;-64
2021/01/05 09:09:45;;;;;;;27.55;16.20;;;2.10;99.90;;;;;;5031026;28;20415;-65
2021/01/05 09:12:11;;;;;;;27.65;18.77;;;2.20;99.90;;;;;;5030993;28;20765;-65
2021/01/05 09:14:37;;;;;;;27.85;18.13;;;2.10;99.90;;;;;;5031491;28;20426;-65
2021/01/05 09:17:04;;;;;;;31.10;20.40;;;2.20;99.90;;;;;;5030524;28;20426;-66
2021/01/05 09:19:31;;;;;;;33.88;20.30;;;2.10;99.90;;;;;;5030810;28;20450;-66
2021/01/05 09:21:57;;;;;;;30.90;19.33;;;2.10;99.90;;;;;;5031530;28;20415;-66
2021/01/05 09:24:24;;;;;;;31.85;19.73;;;2.00;99.90;;;;;;5030601;28;20419;-66
2021/01/05 09:26:52;;;;;;;27.50;17.42;;;2.10;99.90;;;;;;5030981;28;20477;-66
2021/01/05 09:29:19;;;;;;;30.85;18.92;;;2.00;99.90;;;;;;5030772;28;20567;-66
2021/01/05 09:31:47;;;;;;;29.10;19.73;;;2.10;99.90;;;;;;5030863;28;20434;-66
2021/01/05 09:34:15;;;;;;;26.92;18.50;;;2.10;99.90;;;;;;5031103;28;20411;-66
2021/01/05 09:36:41;;;;;;;29.45;19.23;;;2.10;99.90;;;;;;5030493;28;20423;-66
2021/01/05 09:39:11;;;;;;;29.90;18.25;;;2.10;99.90;;;;;;5030931;28;20473;-66
2021/01/05 09:41:40;;;;;;;30.02;18.73;;;2.10;99.90;;;;;;5031019;28;20407;-66
2021/01/05 09:44:07;;;;;;;30.55;19.00;;;2.00;99.90;;;;;;5032316;28;20419;-66
2021/01/05 09:46:34;;;;;;;32.70;19.05;;;2.00;99.90;;;;;;5034611;28;20445;-67
2021/01/05 09:49:00;;;;;;;27.15;17.75;;;2.10;99.90;;;;;;5034405;28;20418;-65
2021/01/05 09:51:28;;;;;;;29.73;17.38;;;2.10;99.90;;;;;;5034337;28;20434;-65
2021/01/05 09:53:54;;;;;;;30.88;18.55;;;2.10;99.90;;;;;;5034370;28;20430;-68
2021/01/05 09:56:20;;;;;;;30.08;17.25;;;2.00;99.90;;;;;;5035075;28;20418;-68
2021/01/05 09:58:48;;;;;;;29.67;18.80;;;2.00;99.90;;;;;;5034217;28;20415;-64
2021/01/05 10:01:15;;;;;;;32.63;20.58;;;1.90;99.90;;;;;;5034765;28;20422;-64
2021/01/05 10:03:44;;;;;;;28.50;17.92;;;2.10;99.90;;;;;;5034475;28;20422;-65
2021/01/05 10:06:11;;;;;;;30.30;17.75;;;2.00;99.90;;;;;;5033891;28;20826;-66
2021/01/05 10:08:37;;;;;;;30.98;18.60;;;2.00;99.90;;;;;;5034186;28;20414;-65
2021/01/05 10:11:04;;;;;;;29.45;18.27;;;1.90;99.90;;;;;;5034331;28;20756;-65
2021/01/05 10:13:30;;;;;;;30.40;18.70;;;1.90;99.90;;;;;;5034173;28;20418;-67
2021/01/05 10:15:57;;;;;;;31.05;19.33;;;1.90;99.90;;;;;;5034006;28;20466;-66
2021/01/05 10:18:24;;;;;;;30.55;19.35;;;1.90;99.90;;;;;;5033529;28;20414;-66
2021/01/05 10:20:50;;;;;;;29.27;18.08;;;1.90;99.90;;;;;;5034560;28;20592;-64
2021/01/05 10:23:16;;;;;;;29.27;18.30;;;1.90;99.90;;;;;;5033834;28;20417;-63
2021/01/05 10:25:42;;;;;;;28.38;18.20;;;1.90;99.90;;;;;;5034479;28;20464;-67
2021/01/05 10:28:08;;;;;;;32.38;18.85;;;1.90;99.90;;;;;;5033962;28;20425;-68
2021/01/05 10:30:36;;;;;;;32.60;19.70;;;2.00;99.90;;;;;;5034296;28;20417;-69
2021/01/05 10:33:06;;;;;;;32.10;19.30;;;2.00;99.90;;;;;;5033868;28;20819;-68
2021/01/05 10:35:32;;;;;;;34.63;20.65;;;2.00;99.90;;;;;;5033750;28;20784;-67
2021/01/05 10:37:58;;;;;;;33.50;19.27;;;2.00;99.90;;;;;;5033317;28;20423;-66
2021/01/05 10:40:25;;;;;;;28.65;18.10;;;2.00;99.90;;;;;;5033568;28;20485;-67
2021/01/05 10:42:52;;;;;;;34.33;19.05;;;2.00;99.90;;;;;;5033730;28;20453;-67
2021/01/05 10:45:21;;;;;;;33.85;19.02;;;2.00;99.90;;;;;;5033767;28;20922;-67
2021/01/05 10:47:48;;;;;;;33.75;19.13;;;2.00;99.90;;;;;;5032773;28;20430;-67
2021/01/05 10:50:17;;;;;;;29.77;18.15;;;2.00;99.90;;;;;;5033428;28;20430;-65
2021/01/05 10:52:45;;;;;;;29.13;18.35;;;2.10;99.90;;;;;;5033129;28;20434;-64
2021/01/05 10:55:13;;;;;;;25.67;16.95;;;2.20;99.90;;;;;;5033290;28;20477;-64
2021/01/05 10:57:39;;;;;;;28.70;18.20;;;2.10;99.90;;;;;;5032409;28;20415;-64
2021/01/05 11:00:06;;;;;;;30.52;18.38;;;2.20;99.90;;;;;;5032929;28;20910;-65
2021/01/05 11:02:32;;;;;;;29.50;18.70;;;2.10;99.90;;;;;;5033294;28;20518;-64
2021/01/05 11:04:59;;;;;;;30.98;18.60;;;2.20;99.90;;;;;;5033241;28;20903;-65
2021/01/05 11:07:27;;;;;;;30.23;17.20;;;2.30;99.90;;;;;;5033398;28;20932;-67
2021/01/05 11:09:53;;;;;;;29.73;19.13;;;2.40;99.90;;;;;;5032979;28;20509;-66
2021/01/05 11:12:21;;;;;;;29.30;18.40;;;2.30;99.90;;;;;;5033834;28;20431;-67
2021/01/05 11:14:48;;;;;;;28.00;17.98;;;2.30;99.90;;;;;;5032755;28;20419;-65
2021/01/05 11:17:14;;;;;;;26.85;17.08;;;2.30;99.90;;;;;;5033039;28;20407;-68
2021/01/05 11:19:41;;;;;;;26.67;17.17;;;2.40;99.90;;;;;;5032864;28;20425;-67
2021/01/05 11:22:09;;;;;;;25.73;16.80;;;2.30;99.90;;;;;;5032879;28;20434;-65
2021/01/05 11:24:37;;;;;;;27.00;17.10;;;2.40;99.90;;;;;;5033309;28;20496;-67
2021/01/05 11:27:06;;;;;;;25.98;17.38;;;2.40;99.90;;;;;;5035093;28;20485;-66
2021/01/05 11:29:33;;;;;;;25.00;17.27;;;2.40;99.90;;;;;;5032533;28;20415;-66
2021/01/05 11:32:01;;;;;;;26.70;18.17;;;2.40;99.90;;;;;;5032912;28;20481;-64
2021/01/05 11:34:28;;;;;;;30.88;18.70;;;2.40;99.90;;;;;;5032212;28;20418;-66
2021/01/05 11:36:59;;;;;;;30.20;17.45;;;2.30;99.90;;;;;;5032566;28;20517;-65
2021/01/05 11:39:25;;;;;;;32.83;18.92;;;2.20;99.90;;;;;;5032612;28;20415;-63
2021/01/05 11:41:52;;;;;;;30.33;18.93;;;2.20;99.90;;;;;;5032590;28;20419;-63
2021/01/05 11:44:18;;;;;;;31.95;21.02;;;2.20;99.90;;;;;;5032834;28;20419;-67
2021/01/05 11:46:44;;;;;;;28.15;18.70;;;2.10;99.90;;;;;;5032537;28;20426;-67
2021/01/05 11:49:10;;;;;;;30.95;20.00;;;2.20;99.90;;;;;;5034128;28;20880;-66
2021/01/05 11:51:37;;;;;;;29.90;18.67;;;2.20;99.90;;;;;;5032148;28;20427;-65
2021/01/05 11:54:05;;;;;;;30.02;19.40;;;2.20;99.90;;;;;;5032711;28;20426;-65
2021/01/05 11:56:34;;;;;;;31.00;18.20;;;2.30;99.90;;;;;;5031685;28;20411;-67
2021/01/05 11:59:02;;;;;;;28.90;18.75;;;2.40;99.90;;;;;;5031741;28;20414;-64
2021/01/05 12:01:35;;;;;;;26.55;17.70;;;2.40;99.90;;;;;;5032466;28;20630;-65
2021/01/05 12:04:02;;;;;;;29.20;18.23;;;2.40;99.90;;;;;;5031824;28;20902;-64
2021/01/05 12:06:28;;;;;;;30.27;18.33;;;2.40;99.90;;;;;;5031957;28;20418;-66
2021/01/05 12:08:54;;;;;;;30.98;19.33;;;2.40;99.90;;;;;;5030912;28;20415;-66
2021/01/05 12:11:24;;;;;;;31.63;19.02;;;2.50;99.90;;;;;;5031403;28;21221;-65
2021/01/05 12:13:50;;;;;;;32.00;20.15;;;2.50;99.90;;;;;;5032022;28;20434;-65
2021/01/05 12:16:28;;;;;;;30.23;18.40;;;2.50;99.90;;;;;;5032011;28;20423;-66
2021/01/05 12:18:55;;;;;;;31.60;20.85;;;2.40;99.90;;;;;;5031162;28;20896;-65
2021/01/05 12:21:23;;;;;;;34.63;21.02;;;2.30;99.90;;;;;;5031601;28;20429;-65
2021/01/05 12:23:49;;;;;;;35.70;21.02;;;2.20;99.90;;;;;;5031921;28;20427;-65
2021/01/05 12:26:25;;;;;;;40.20;21.67;;;2.30;99.90;;;;;;5031567;28;20497;-64
2021/01/05 12:28:52;;;;;;;38.83;21.67;;;2.30;99.90;;;;;;5031731;28;20418;-65
2021/01/05 12:31:18;;;;;;;37.63;22.10;;;2.30;99.90;;;;;;5032090;28;20419;-63
2021/01/05 12:33:45;;;;;;;37.65;23.00;;;2.30;99.90;;;;;;5031792;28;20485;-64
2021/01/05 12:36:12;;;;;;;36.72;20.80;;;2.30;99.90;;;;;;5031423;28;20773;-64
2021/01/05 12:38:39;;;;;;;34.65;21.13;;;2.30;99.90;;;;;;5032301;28;20419;-64
2021/01/05 12:41:05;;;;;;;42.70;23.50;;;2.20;99.90;;;;;;5032781;28;20536;-64
2021/01/05 12:43:31;;;;;;;37.00;21.80;;;2.20;99.90;;;;;;5031360;28;20481;-64
2021/01/05 12:45:57;;;;;;;39.50;22.05;;;2.20;99.90;;;;;;5031796;28;20415;-63
2021/01/05 12:48:23;;;;;;;36.58;22.05;;;2.30;99.90;;;;;;5031136;28;20419;-64
2021/01/05 12:50:50;;;;;;;32.65;21.45;;;2.20;99.90;;;;;;5031235;28;20438;-64